Strona główna
METAR-TAF:

METAR-TAF

Lotnisko :

Ann Arbor, Michigan, Stany Zjednoczone

Szerokość geograficzna: 42-13-26N, Długość geograficzna: 083-44-24W, wysokość: 255 m

Aktualna obserwacja pogody

Raport powstał 18 minut temu, godzina 13:09 UTC
Wiatr 13 kt od południowo-południowy wschód w porywach dochodzący do 21 kt
Temperatura 0°C
Wilgotność 86%
Ciśnienie 1013 hPa
Widzialność: 6.4 km
Zachmurzenie całkowite na wysokości 600 ft
słaby śnieg, zamglenie

METAR: KARB 181309Z 15013G21KT 4SM -SN BR OVC006 00/M02 A2992 RMK AO2 FZRAE04SNB04 PRESFR P0000 I1000 T00001017

czas: 08:27 (13:27 UTC)


TAF: brakujący

Obserwacja i prognoza pogody dla ponad 4000 lotnisk (raport METAR i TAF).

Dostępne stacje oznaczono żółtymi i czerwonymi punktami na mapie.

Najedź kursorem aby zobaczyć nazwę stacji.

Kliknij aby zobaczyć obserwacje i prognozy pogody.

Aby zmienić mapę: kliknij na zielony przycisk z czarnym krzyżykiem, aby powiększyć; na zielony przycisk z myślnikiem, aby pomniejszyć; na zielone strzałki, aby przejść do map sąsiednich.


METAR-TAF: